Time;durP1;ratioP1;P1;durP2;ratioP2;P2;SDS_P1;SDS_P2;PMS_P1;PMS_P2;Temp;Humidity;BMP_temperature;BMP_pressure;BME280_temperature;BME280_humidity;BME280_pressure;Samples;Min_cycle;Max_cycle;Signal;HPM_P1;HPM_P2
2022/11/11 00:02:16;;;;;;;26.23;20.45;;;25.50;83.00;;;;;;1824562;77;21170;-83
2022/11/11 00:04:47;;;;;;;31.07;21.87;;;25.50;82.80;;;;;;1818997;77;21249;-85
2022/11/11 00:07:18;;;;;;;27.67;19.90;;;25.50;82.50;;;;;;1821636;78;21175;-84
2022/11/11 00:09:49;;;;;;;26.35;20.75;;;25.50;82.60;;;;;;1813905;78;21145;-85
2022/11/11 00:12:19;;;;;;;30.05;20.90;;;25.60;82.60;;;;;;1809335;78;21178;-85
2022/11/11 00:14:51;;;;;;;30.12;20.27;;;25.60;82.50;;;;;;1808619;78;21278;-85
2022/11/11 00:25:53;;;;;;;29.27;19.32;;;25.70;81.80;;;;;;1745956;80;21577;-84
2022/11/11 00:28:27;;;;;;;27.27;20.43;;;25.70;81.80;;;;;;1731085;80;21650;-85
2022/11/11 00:31:06;;;;;;;27.37;19.65;;;25.80;81.60;;;;;;1781497;79;21634;-87
2022/11/11 00:33:38;;;;;;;31.10;20.10;;;25.80;81.40;;;;;;1746284;80;21197;-85
2022/11/11 00:36:09;;;;;;;28.02;19.90;;;25.80;81.40;;;;;;1777810;80;21182;-85
2022/11/11 00:38:48;;;;;;;30.70;20.43;;;25.90;81.00;;;;;;1767636;79;21109;-88
2022/11/11 00:41:21;;;;;;;29.30;19.55;;;25.90;81.00;;;;;;1739717;82;21218;-85
2022/11/11 00:43:52;;;;;;;31.40;21.82;;;26.00;81.00;;;;;;1734207;82;21278;-87
2022/11/11 00:52:00;;;;;;;30.10;20.20;;;26.20;80.50;;;;;;1770079;79;21435;-86
2022/11/11 00:54:31;;;;;;;29.48;20.55;;;26.20;80.00;;;;;;1777327;80;21155;-85
2022/11/11 00:57:01;;;;;;;34.73;21.87;;;26.20;79.90;;;;;;1780805;79;21552;-86
2022/11/11 00:59:43;;;;;;;28.52;20.43;;;26.30;79.90;;;;;;1760919;79;21181;-86
2022/11/11 01:02:14;;;;;;;29.15;21.12;;;26.30;79.80;;;;;;1775408;79;21182;-87
2022/11/11 01:04:44;;;;;;;31.12;21.23;;;26.40;79.50;;;;;;1757445;80;21117;-86
2022/11/11 01:07:15;;;;;;;30.02;20.82;;;26.40;79.50;;;;;;1782891;80;21178;-85
2022/11/11 01:09:46;;;;;;;28.40;20.20;;;26.40;79.60;;;;;;1782242;80;21229;-85
2022/11/11 01:12:17;;;;;;;31.23;20.32;;;26.40;79.60;;;;;;1777665;80;21267;-86
2022/11/11 01:14:48;;;;;;;27.70;19.90;;;26.50;79.40;;;;;;1783337;80;21119;-85
2022/11/11 01:17:19;;;;;;;25.37;19.45;;;26.50;79.50;;;;;;1776416;79;21119;-86
2022/11/11 01:19:49;;;;;;;27.20;19.23;;;26.50;79.30;;;;;;1760639;81;21145;-86
2022/11/11 01:22:20;;;;;;;27.52;19.23;;;26.60;79.20;;;;;;1823983;78;21104;-85
2022/11/11 01:24:51;;;;;;;24.45;18.45;;;26.60;79.10;;;;;;1816332;78;21154;-85
2022/11/11 01:27:22;;;;;;;28.65;20.20;;;26.70;79.10;;;;;;1824663;78;21145;-87
2022/11/11 01:29:53;;;;;;;27.75;18.32;;;26.80;79.10;;;;;;1821948;77;21180;-86
2022/11/11 01:32:41;;;;;;;26.12;18.73;;;26.80;79.00;;;;;;1828556;78;21173;-85
2022/11/11 01:35:13;;;;;;;26.00;16.90;;;26.80;78.80;;;;;;1828322;78;21142;-86
2022/11/11 01:37:45;;;;;;;20.37;15.35;;;26.90;78.90;;;;;;1827105;77;21114;-86
2022/11/11 01:40:17;;;;;;;20.23;16.12;;;27.00;79.20;;;;;;1821052;78;21191;-84
2022/11/11 01:42:59;;;;;;;22.17;15.32;;;27.00;79.40;;;;;;1824388;79;21234;-86
2022/11/11 01:45:52;;;;;;;19.48;14.45;;;27.10;79.40;;;;;;1809203;78;21146;-84
2022/11/11 01:51:40;;;;;;;21.02;14.85;;;27.20;79.00;;;;;;1831283;77;21562;-85
2022/11/11 01:54:16;;;;;;;21.62;14.07;;;27.30;79.30;;;;;;1826058;78;21210;-84
2022/11/11 01:56:50;;;;;;;21.17;13.10;;;27.30;79.30;;;;;;1829872;78;21146;-86
2022/11/11 01:59:21;;;;;;;19.73;14.05;;;27.40;79.40;;;;;;1854705;77;21650;-76
2022/11/11 02:01:52;;;;;;;17.82;13.25;;;27.50;79.40;;;;;;1833334;77;21153;-75
2022/11/11 02:07:14;;;;;;;20.02;13.35;;;27.60;79.30;;;;;;1825668;77;21261;-77
2022/11/11 02:09:47;;;;;;;14.98;11.12;;;27.60;79.40;;;;;;1849082;77;21225;-77
2022/11/11 02:15:07;;;;;;;16.50;11.35;;;27.70;79.70;;;;;;1824293;77;21171;-76
2022/11/11 02:17:38;;;;;;;17.32;11.55;;;27.70;79.50;;;;;;1814711;77;21251;-76
2022/11/11 02:20:13;;;;;;;18.65;12.25;;;27.80;79.90;;;;;;1813360;78;21201;-75
2022/11/11 02:23:02;;;;;;;17.30;12.23;;;27.80;80.10;;;;;;1804846;79;21154;-76
2022/11/11 02:25:34;;;;;;;16.60;12.35;;;27.80;80.00;;;;;;1815034;79;21131;-75
2022/11/11 02:28:07;;;;;;;17.15;11.65;;;27.80;80.00;;;;;;1815911;79;21556;-74
2022/11/11 02:30:37;;;;;;;15.28;9.65;;;27.90;80.60;;;;;;1799471;79;21198;-74
2022/11/11 02:33:09;;;;;;;16.12;11.00;;;27.90;80.50;;;;;;1794273;79;21139;-76
2022/11/11 02:35:42;;;;;;;15.03;10.65;;;27.90;80.60;;;;;;1808507;79;21120;-77
2022/11/11 02:38:15;;;;;;;16.20;10.90;;;27.90;80.70;;;;;;1815506;79;21155;-77
2022/11/11 02:43:35;;;;;;;17.35;11.40;;;28.10;81.10;;;;;;1820120;78;21103;-76
2022/11/11 02:46:07;;;;;;;15.55;10.40;;;28.10;80.80;;;;;;1806883;79;21275;-78
2022/11/11 02:48:38;;;;;;;16.02;10.82;;;28.20;81.40;;;;;;1815849;78;21104;-78
2022/11/11 02:51:10;;;;;;;12.40;9.95;;;28.30;80.60;;;;;;1817782;77;21198;-78
2022/11/11 02:53:42;;;;;;;14.03;10.35;;;28.40;80.70;;;;;;1808133;78;21181;-76
2022/11/11 02:57:05;;;;;;;14.13;9.75;;;28.40;80.90;;;;;;1804422;79;21168;-78
2022/11/11 02:58:45;;;;;;;11.70;8.63;;;28.50;80.50;;;;;;1762287;80;21140;-77
2022/11/11 03:01:22;;;;;;;12.35;7.35;;;28.60;80.10;;;;;;1787599;79;21110;-78
2022/11/11 03:03:48;;;;;;;11.12;7.03;;;28.60;79.90;;;;;;1778625;78;21290;-78
2022/11/11 03:06:19;;;;;;;12.13;7.03;;;28.70;79.90;;;;;;1777229;80;21148;-78
2022/11/11 03:08:50;;;;;;;8.93;6.65;;;28.80;79.80;;;;;;1768325;80;21212;-79
2022/11/11 03:11:27;;;;;;;10.72;7.05;;;28.90;79.80;;;;;;1788939;79;21076;-80
2022/11/11 03:14:00;;;;;;;10.70;6.00;;;29.00;79.50;;;;;;1793392;79;21225;-76
2022/11/11 03:19:22;;;;;;;8.83;5.53;;;29.30;78.40;;;;;;1768086;80;21659;-78
2022/11/11 03:21:55;;;;;;;10.65;6.90;;;29.30;78.00;;;;;;1795151;80;21578;-76
2022/11/11 03:25:36;;;;;;;7.72;5.83;;;29.40;77.70;;;;;;1772032;80;21113;-76
2022/11/11 03:27:00;;;;;;;8.58;6.15;;;29.50;77.60;;;;;;1794005;79;21734;-78
2022/11/11 03:29:32;;;;;;;8.08;5.95;;;29.60;77.60;;;;;;1795494;80;21199;-79
2022/11/11 03:32:16;;;;;;;9.10;5.67;;;29.70;77.20;;;;;;1799910;79;21771;-78
2022/11/11 03:34:41;;;;;;;9.60;6.20;;;29.70;76.90;;;;;;1793044;79;21111;-78
2022/11/11 03:40:00;;;;;;;10.25;5.70;;;29.80;76.80;;;;;;1797045;80;21142;-78
2022/11/11 03:42:31;;;;;;;12.15;9.20;;;29.90;76.90;;;;;;1797464;80;21228;-78
2022/11/11 03:45:02;;;;;;;10.15;6.35;;;30.00;76.80;;;;;;1797598;78;21653;-78
2022/11/11 03:47:34;;;;;;;6.58;5.28;;;30.20;76.20;;;;;;1797252;80;21514;-77
2022/11/11 03:50:06;;;;;;;10.13;6.78;;;30.20;76.00;;;;;;1797917;80;21102;-77
2022/11/11 03:52:43;;;;;;;9.98;6.50;;;30.60;97.80;;;;;;1797989;79;21239;-78
2022/11/11 03:55:14;;;;;;;8.87;6.67;;;30.90;92.90;;;;;;1799230;79;21141;-79
2022/11/11 03:57:46;;;;;;;9.35;5.70;;;30.90;90.70;;;;;;1797925;80;21150;-78
2022/11/11 04:00:20;;;;;;;9.78;6.45;;;30.80;89.00;;;;;;1797576;80;21110;-75
2022/11/11 04:11:33;;;;;;;9.83;4.47;;;30.90;74.10;;;;;;1798403;80;21189;-77
2022/11/11 04:16:58;;;;;;;4.83;3.10;;;31.10;73.60;;;;;;1771549;81;21146;-76
2022/11/11 04:22:27;;;;;;;6.12;3.45;;;31.30;72.50;;;;;;1805052;79;21174;-79
2022/11/11 04:29:27;;;;;;;8.28;3.35;;;31.20;72.50;;;;;;1816843;78;21192;-77
2022/11/11 04:30:19;;;;;;;4.90;3.25;;;31.20;72.50;;;;;;1804555;77;21182;-76
2022/11/11 04:32:52;;;;;;;7.35;3.85;;;31.10;72.70;;;;;;1816315;79;21614;-79
2022/11/11 04:35:25;;;;;;;6.03;3.47;;;31.00;73.20;;;;;;1752731;82;21205;-74
2022/11/11 04:41:02;;;;;;;5.50;2.98;;;30.90;73.70;;;;;;1751196;82;21240;-78
2022/11/11 04:43:18;;;;;;;5.95;3.70;;;31.00;73.90;;;;;;1754309;80;21578;-79
2022/11/11 04:45:52;;;;;;;6.35;3.47;;;31.00;73.50;;;;;;1758335;81;21625;-77
2022/11/11 04:48:23;;;;;;;7.42;4.55;;;31.00;73.40;;;;;;1758984;81;21169;-78
2022/11/11 04:50:54;;;;;;;13.15;4.80;;;30.90;73.80;;;;;;1758763;81;21129;-78
2022/11/11 04:53:25;;;;;;;6.45;3.95;;;30.80;74.30;;;;;;1758927;81;21243;-76
2022/11/11 04:58:45;;;;;;;6.28;3.65;;;30.90;74.10;;;;;;1754920;80;21660;-76
2022/11/11 05:03:14;;;;;;;6.72;2.98;;;31.00;74.00;;;;;;1773384;80;21160;-77
2022/11/11 05:03:50;;;;;;;3.58;2.25;;;31.10;73.30;;;;;;1780351;80;21638;-78
2022/11/11 05:09:10;;;;;;;8.73;3.30;;;31.40;71.40;;;;;;1781110;80;21124;-77
2022/11/11 05:11:43;;;;;;;5.15;2.58;;;31.60;71.40;;;;;;1780197;80;21617;-77
2022/11/11 05:22:44;;;;;;;4.55;2.83;;;31.40;71.20;;;;;;1758116;81;21109;-76
2022/11/11 05:25:25;;;;;;;4.78;2.83;;;31.30;71.80;;;;;;1826248;78;21490;-76
2022/11/11 05:27:57;;;;;;;6.28;2.60;;;31.30;71.40;;;;;;1826672;78;21181;-78
2022/11/11 05:30:28;;;;;;;4.53;2.35;;;31.30;71.80;;;;;;1826852;78;21515;-77
2022/11/11 05:32:59;;;;;;;3.87;2.27;;;31.20;71.20;;;;;;1823475;78;21177;-77
2022/11/11 05:35:30;;;;;;;5.60;2.47;;;31.20;71.60;;;;;;1827042;77;21149;-76
2022/11/11 05:38:21;;;;;;;5.20;2.75;;;31.10;71.70;;;;;;1823950;78;21150;-77
2022/11/11 05:40:53;;;;;;;4.25;2.55;;;31.10;72.00;;;;;;1825617;78;21204;-77
2022/11/11 05:43:24;;;;;;;4.10;2.00;;;31.00;72.20;;;;;;1826901;78;21198;-77
2022/11/11 05:45:55;;;;;;;6.40;3.25;;;31.10;72.00;;;;;;1824830;78;21142;-78
2022/11/11 05:48:26;;;;;;;4.20;2.10;;;31.20;72.00;;;;;;1823378;77;21178;-78
2022/11/11 05:50:59;;;;;;;4.22;2.20;;;31.40;71.70;;;;;;1827167;77;21166;-76
2022/11/11 05:53:30;;;;;;;3.92;1.90;;;31.60;70.60;;;;;;1824304;78;21606;-77
2022/11/11 05:56:01;;;;;;;3.65;2.10;;;31.80;70.60;;;;;;1827959;77;21221;-75
2022/11/11 05:58:31;;;;;;;4.83;2.55;;;31.80;69.90;;;;;;1828070;78;21091;-77
2022/11/11 06:01:03;;;;;;;4.00;1.90;;;31.90;69.50;;;;;;1829288;77;21682;-76
2022/11/11 06:03:34;;;;;;;5.28;2.17;;;32.00;69.40;;;;;;1828465;78;21103;-78
2022/11/11 06:06:06;;;;;;;5.20;1.85;;;32.00;69.10;;;;;;1827265;77;21232;-77
2022/11/11 06:08:40;;;;;;;6.30;2.25;;;32.20;68.70;;;;;;1831030;77;21228;-78
2022/11/11 06:11:11;;;;;;;4.55;2.27;;;32.20;68.30;;;;;;1828131;77;21179;-79
2022/11/11 06:13:43;;;;;;;3.70;2.62;;;32.30;67.80;;;;;;1834605;77;21654;-78
2022/11/11 06:16:14;;;;;;;4.05;2.33;;;32.30;68.10;;;;;;1830000;77;21182;-78
2022/11/11 06:18:46;;;;;;;6.67;2.67;;;32.40;67.60;;;;;;1847807;77;21199;-77
2022/11/11 06:21:17;;;;;;;3.35;2.40;;;32.40;67.10;;;;;;1839105;77;21123;-78
2022/11/11 06:23:48;;;;;;;4.58;2.75;;;32.50;66.90;;;;;;1827801;78;21177;-78
2022/11/11 06:26:25;;;;;;;4.12;2.02;;;32.40;66.30;;;;;;1826239;77;21164;-77
2022/11/11 06:28:57;;;;;;;4.28;2.30;;;32.40;66.80;;;;;;1800675;78;21189;-78
2022/11/11 06:31:28;;;;;;;6.00;2.40;;;32.50;66.90;;;;;;1782953;80;21320;-78
2022/11/11 06:34:00;;;;;;;7.42;2.75;;;32.50;66.20;;;;;;1792283;80;21112;-77
2022/11/11 06:36:30;;;;;;;8.43;3.80;;;32.60;66.20;;;;;;1829985;77;21164;-76
2022/11/11 06:39:01;;;;;;;9.78;5.42;;;32.60;66.30;;;;;;1834222;77;21093;-77
2022/11/11 06:41:32;;;;;;;4.05;2.75;;;32.60;66.10;;;;;;1822067;78;21190;-77
2022/11/11 06:44:03;;;;;;;4.85;2.80;;;32.70;66.30;;;;;;1824828;77;21563;-78
2022/11/11 06:46:34;;;;;;;4.95;3.05;;;32.70;66.40;;;;;;1826462;77;21136;-79
2022/11/11 06:49:06;;;;;;;4.85;2.77;;;32.70;66.70;;;;;;1829888;77;21701;-78
2022/11/11 06:51:37;;;;;;;5.22;3.37;;;32.70;66.20;;;;;;1829377;77;21103;-79
2022/11/11 06:54:08;;;;;;;13.53;8.90;;;32.70;66.20;;;;;;1817827;78;21152;-77
2022/11/11 06:56:40;;;;;;;10.10;5.65;;;32.60;66.60;;;;;;1800084;79;21196;-78
2022/11/11 06:59:12;;;;;;;5.92;3.92;;;32.60;66.50;;;;;;1777914;80;21219;-78
2022/11/11 07:01:47;;;;;;;9.25;2.47;;;32.60;65.90;;;;;;1759861;80;21095;-78
2022/11/11 07:04:18;;;;;;;8.10;5.60;;;32.70;65.70;;;;;;1786878;80;21205;-79
2022/11/11 07:06:49;;;;;;;5.90;3.40;;;32.60;66.10;;;;;;1822696;77;21091;-78
2022/11/11 07:09:26;;;;;;;4.37;2.85;;;32.60;66.60;;;;;;1829565;77;21113;-78
2022/11/11 07:11:54;;;;;;;3.75;2.22;;;32.60;66.60;;;;;;1836194;77;21095;-78
2022/11/11 07:14:26;;;;;;;4.62;2.58;;;32.70;66.50;;;;;;1826440;77;21160;-76
2022/11/11 07:16:57;;;;;;;5.05;2.60;;;32.70;66.50;;;;;;1834649;77;21667;-78
2022/11/11 07:19:29;;;;;;;5.22;2.70;;;32.70;66.30;;;;;;1825669;78;21142;-78
2022/11/11 07:22:00;;;;;;;3.58;2.15;;;32.60;66.30;;;;;;1826259;77;21752;-79
2022/11/11 07:24:32;;;;;;;3.47;2.30;;;32.60;65.50;;;;;;1807048;78;21659;-78
2022/11/11 07:27:02;;;;;;;4.83;2.15;;;32.50;65.60;;;;;;1822729;78;21169;-78
2022/11/11 07:29:36;;;;;;;3.12;2.00;;;32.40;66.10;;;;;;1828367;78;21212;-78
2022/11/11 07:32:07;;;;;;;4.95;2.30;;;32.30;66.40;;;;;;1827882;78;21111;-78
2022/11/11 07:34:38;;;;;;;6.10;2.40;;;32.10;66.90;;;;;;1761836;81;21189;-77
2022/11/11 07:37:09;;;;;;;5.50;2.60;;;32.00;67.40;;;;;;1828344;77;21236;-77
2022/11/11 07:39:50;;;;;;;3.22;2.10;;;32.00;68.00;;;;;;1827275;78;21259;-79
2022/11/11 07:42:21;;;;;;;3.95;2.65;;;31.90;68.40;;;;;;1824656;78;21712;-80
2022/11/11 07:45:07;;;;;;;4.30;2.30;;;31.80;67.90;;;;;;1827156;78;21199;-78
2022/11/11 07:47:34;;;;;;;3.60;2.35;;;31.90;67.80;;;;;;1824412;77;21105;-78
2022/11/11 07:50:07;;;;;;;10.65;3.25;;;31.90;68.00;;;;;;1824437;78;21464;-79
2022/11/11 07:52:38;;;;;;;4.22;2.02;;;32.00;68.70;;;;;;1830557;77;21170;-78
2022/11/11 07:55:09;;;;;;;4.25;2.10;;;32.10;67.70;;;;;;1825623;77;21159;-79
2022/11/11 07:57:48;;;;;;;3.92;1.75;;;32.10;67.40;;;;;;1820351;78;21101;-77
2022/11/11 08:00:24;;;;;;;3.27;1.80;;;32.20;66.80;;;;;;1830122;77;21230;-77
2022/11/11 08:03:06;;;;;;;2.65;1.80;;;32.20;66.50;;;;;;1826596;78;21106;-79
2022/11/11 08:05:38;;;;;;;3.72;1.92;;;32.20;66.90;;;;;;1829745;77;21188;-77
2022/11/11 08:08:11;;;;;;;3.10;1.65;;;32.20;66.90;;;;;;1825649;77;21165;-78
2022/11/11 08:11:01;;;;;;;2.87;1.90;;;32.20;67.20;;;;;;1803552;78;21174;-78
2022/11/11 08:13:44;;;;;;;4.15;1.90;;;32.20;67.40;;;;;;1830182;78;21146;-80
2022/11/11 08:16:17;;;;;;;3.67;1.87;;;32.20;67.60;;;;;;1828502;78;21184;-79
2022/11/11 08:18:48;;;;;;;4.87;2.65;;;32.10;67.60;;;;;;1828607;78;21146;-78
2022/11/11 08:21:23;;;;;;;5.17;2.30;;;32.10;68.00;;;;;;1828300;78;21141;-79
2022/11/11 08:23:52;;;;;;;5.00;2.40;;;32.20;67.90;;;;;;1830059;77;21193;-77
2022/11/11 08:26:25;;;;;;;4.65;1.85;;;32.20;67.50;;;;;;1818441;77;21241;-80
2022/11/11 08:29:06;;;;;;;4.87;2.83;;;32.30;67.60;;;;;;1825217;77;21195;-79
2022/11/11 08:31:39;;;;;;;6.65;2.47;;;32.30;67.50;;;;;;1819987;77;21211;-79
2022/11/11 08:34:10;;;;;;;4.20;2.20;;;32.30;67.30;;;;;;1814865;77;21184;-77
2022/11/11 08:36:43;;;;;;;5.47;2.70;;;32.30;67.40;;;;;;1806498;77;21542;-78
2022/11/11 08:39:14;;;;;;;4.12;2.33;;;32.20;67.30;;;;;;1824192;77;21164;-76
2022/11/11 08:41:50;;;;;;;7.47;2.47;;;32.10;67.10;;;;;;1840326;77;21107;-79
2022/11/11 08:44:21;;;;;;;4.62;2.12;;;32.00;67.20;;;;;;1822526;79;21147;-78
2022/11/11 08:46:53;;;;;;;3.75;2.10;;;31.90;67.50;;;;;;1815888;77;21197;-78
2022/11/11 08:49:25;;;;;;;3.67;2.15;;;31.80;67.40;;;;;;1803718;77;21146;-79
2022/11/11 08:52:00;;;;;;;3.62;2.08;;;31.80;67.60;;;;;;1773809;80;21643;-78
2022/11/11 08:54:34;;;;;;;3.70;2.00;;;31.80;67.60;;;;;;1777993;80;21092;-77
2022/11/11 08:57:07;;;;;;;5.15;2.20;;;31.80;67.60;;;;;;1763237;79;21666;-77
2022/11/11 08:59:38;;;;;;;4.33;2.22;;;31.80;67.70;;;;;;1785831;80;21116;-78
2022/11/11 09:02:14;;;;;;;3.40;2.40;;;31.70;67.70;;;;;;1779496;80;21231;-79
2022/11/11 09:04:46;;;;;;;4.85;2.10;;;31.80;67.80;;;;;;1792118;79;21197;-78
2022/11/11 09:07:20;;;;;;;6.37;2.20;;;31.80;67.80;;;;;;1844198;77;21152;-77
2022/11/11 09:09:51;;;;;;;4.20;2.20;;;31.80;67.90;;;;;;1842246;77;21164;-78
2022/11/11 09:12:22;;;;;;;4.58;2.02;;;31.80;68.10;;;;;;1825675;77;21211;-79
2022/11/11 09:17:46;;;;;;;6.42;2.50;;;31.70;68.10;;;;;;1732469;82;21169;-79
2022/11/11 09:20:19;;;;;;;5.58;3.02;;;31.70;68.20;;;;;;1732038;82;22062;-78
2022/11/11 09:22:56;;;;;;;5.42;2.42;;;31.70;68.30;;;;;;1732259;83;21089;-77
2022/11/11 09:25:24;;;;;;;4.15;2.55;;;31.70;68.10;;;;;;1729627;83;21165;-79
2022/11/11 09:28:01;;;;;;;4.58;1.90;;;31.70;68.60;;;;;;1732764;83;21204;-77
2022/11/11 09:30:32;;;;;;;3.95;2.00;;;31.80;68.20;;;;;;1732596;83;21168;-79
2022/11/11 09:33:06;;;;;;;4.42;2.62;;;31.70;67.90;;;;;;1732757;83;22042;-78
2022/11/11 09:35:37;;;;;;;6.00;2.22;;;31.70;67.90;;;;;;1731183;82;21187;-88
2022/11/11 09:38:09;;;;;;;5.95;2.60;;;31.70;68.10;;;;;;1736247;83;21106;-89
2022/11/11 09:40:58;;;;;;;4.47;2.20;;;31.70;67.90;;;;;;1735793;83;21089;-87
2022/11/11 09:43:55;;;;;;;3.45;2.47;;;31.70;68.10;;;;;;1735351;82;21169;-90
2022/11/11 09:46:42;;;;;;;5.05;2.50;;;31.70;68.30;;;;;;1734379;81;21235;-88
2022/11/11 09:49:21;;;;;;;6.10;2.80;;;31.60;68.10;;;;;;1735970;83;21166;-90
2022/11/11 09:52:16;;;;;;;4.72;2.58;;;31.60;68.30;;;;;;1735803;80;21160;-88
2022/11/11 09:54:47;;;;;;;5.92;2.55;;;31.60;68.40;;;;;;1730311;81;21231;-88
2022/11/11 09:57:39;;;;;;;6.85;2.58;;;31.50;68.60;;;;;;1732526;83;21160;-88
2022/11/11 10:00:24;;;;;;;4.97;2.65;;;31.40;68.80;;;;;;1733642;83;21094;-90
2022/11/11 10:03:03;;;;;;;5.17;2.52;;;31.40;68.90;;;;;;1733988;83;21126;-89
2022/11/11 10:05:38;;;;;;;10.93;4.37;;;31.40;69.10;;;;;;1732671;82;21119;-90
2022/11/11 10:08:21;;;;;;;5.70;3.27;;;31.30;69.30;;;;;;1734462;82;21134;-88
2022/11/11 10:10:54;;;;;;;5.22;2.42;;;31.30;69.40;;;;;;1733808;81;21192;-88
2022/11/11 10:13:28;;;;;;;4.87;2.50;;;31.30;69.30;;;;;;1733842;83;21130;-89
2022/11/11 10:16:17;;;;;;;4.30;2.62;;;31.20;69.20;;;;;;1733594;82;21122;-86
2022/11/11 10:18:54;;;;;;;6.78;2.60;;;31.20;69.50;;;;;;1733528;83;21170;-89
2022/11/11 10:21:47;;;;;;;6.42;2.45;;;31.20;69.80;;;;;;1732246;83;21113;-89
2022/11/11 10:24:44;;;;;;;4.53;3.05;;;31.20;70.00;;;;;;1685852;85;21182;-88
2022/11/11 10:27:19;;;;;;;4.62;2.65;;;31.10;70.00;;;;;;1733991;82;21114;-87
2022/11/11 10:29:51;;;;;;;6.70;2.80;;;31.10;70.10;;;;;;1733284;83;21233;-86
2022/11/11 10:32:28;;;;;;;6.15;3.25;;;31.10;70.00;;;;;;1732988;83;21244;-86
2022/11/11 10:35:18;;;;;;;3.98;2.62;;;31.00;69.90;;;;;;1732702;83;21657;-88
2022/11/11 10:38:13;;;;;;;6.37;3.25;;;31.00;70.10;;;;;;1727949;83;21138;-91
2022/11/11 10:40:56;;;;;;;10.38;3.37;;;31.00;70.30;;;;;;1704762;83;21112;-90
2022/11/11 10:43:31;;;;;;;6.80;3.33;;;30.90;70.40;;;;;;1743135;82;21206;-89
2022/11/11 10:46:17;;;;;;;7.45;3.37;;;30.90;70.70;;;;;;1732856;83;21239;-91
2022/11/11 10:48:57;;;;;;;8.30;3.52;;;30.90;70.80;;;;;;1733052;83;21208;-90
2022/11/11 10:51:32;;;;;;;6.90;3.35;;;30.80;70.90;;;;;;1733163;83;21272;-90
2022/11/11 10:54:20;;;;;;;10.48;3.90;;;30.80;71.00;;;;;;1733360;83;21169;-90
2022/11/11 10:57:07;;;;;;;7.47;3.50;;;30.80;72.10;;;;;;1733515;83;21165;-90
2022/11/11 10:59:43;;;;;;;8.60;4.42;;;30.80;71.30;;;;;;1733565;83;21265;-91
2022/11/11 11:02:31;;;;;;;14.10;6.08;;;30.70;71.50;;;;;;1733093;83;21135;-92
2022/11/11 11:05:09;;;;;;;10.55;6.67;;;30.70;71.70;;;;;;1733700;82;21221;-92
2022/11/11 11:07:45;;;;;;;10.95;7.53;;;30.70;71.90;;;;;;1733435;83;21272;-90
2022/11/11 11:10:25;;;;;;;11.90;5.33;;;30.70;72.10;;;;;;1733405;83;21197;-91
2022/11/11 11:13:19;;;;;;;8.03;4.83;;;30.60;72.20;;;;;;1736983;81;21166;-90
2022/11/11 11:15:58;;;;;;;11.55;5.47;;;30.60;72.50;;;;;;1733752;83;21180;-88
2022/11/11 11:18:29;;;;;;;11.43;5.55;;;30.60;72.70;;;;;;1733040;81;21204;-88
2022/11/11 11:21:02;;;;;;;9.40;5.37;;;30.60;72.90;;;;;;1705153;83;21404;-90
2022/11/11 11:23:44;;;;;;;10.18;5.30;;;30.60;73.20;;;;;;1733065;83;21112;-91
2022/11/11 11:26:15;;;;;;;10.13;6.00;;;30.60;73.30;;;;;;1673794;86;21216;-89
2022/11/11 11:29:05;;;;;;;13.03;6.53;;;30.50;73.50;;;;;;1730071;83;21154;-88
2022/11/11 11:31:40;;;;;;;13.72;7.60;;;30.50;73.70;;;;;;1732807;83;21202;-87
2022/11/11 11:34:10;;;;;;;10.98;6.92;;;30.50;74.00;;;;;;1703711;83;21102;-87
2022/11/11 11:36:45;;;;;;;17.73;6.62;;;30.50;74.20;;;;;;1737036;82;21169;-88
2022/11/11 11:39:25;;;;;;;11.85;7.95;;;30.50;74.40;;;;;;1702529;84;21131;-91
2022/11/11 11:42:01;;;;;;;15.68;8.88;;;30.40;74.40;;;;;;1698485;84;21660;-91
2022/11/11 11:44:37;;;;;;;17.87;9.83;;;30.40;74.60;;;;;;1705899;83;21248;-93
2022/11/11 11:47:16;;;;;;;13.57;9.43;;;30.30;74.80;;;;;;1757688;82;21167;-92
2022/11/11 11:50:10;;;;;;;18.57;9.93;;;30.30;74.90;;;;;;1751302;81;21821;-90
2022/11/11 11:52:50;;;;;;;19.90;11.03;;;30.30;75.20;;;;;;1732451;83;21224;-92
2022/11/11 11:55:38;;;;;;;21.27;11.80;;;30.30;75.30;;;;;;1734429;82;21199;-88
2022/11/11 11:58:27;;;;;;;20.48;11.40;;;30.30;75.50;;;;;;1733788;82;21224;-90
2022/11/11 12:01:24;;;;;;;21.23;11.15;;;30.30;75.50;;;;;;1737647;81;21225;-91
2022/11/11 12:04:03;;;;;;;20.00;10.90;;;30.30;75.70;;;;;;1724902;83;21202;-91
2022/11/11 12:06:37;;;;;;;18.10;10.05;;;30.20;75.70;;;;;;1733662;82;21146;-91
2022/11/11 12:09:17;;;;;;;19.95;10.85;;;30.20;76.30;;;;;;1719610;81;21095;-90
2022/11/11 12:11:53;;;;;;;17.48;9.85;;;30.20;75.90;;;;;;1702659;83;21170;-90
2022/11/11 12:17:27;;;;;;;20.37;9.58;;;30.20;75.90;;;;;;1804465;77;21156;-91
2022/11/11 12:20:34;;;;;;;17.55;10.53;;;30.20;76.00;;;;;;1805025;78;21217;-90
2022/11/11 12:23:33;;;;;;;24.27;9.78;;;30.10;76.50;;;;;;1825548;78;21188;-89
2022/11/11 12:26:40;;;;;;;19.25;9.33;;;30.10;76.40;;;;;;1819319;78;21187;-89
2022/11/11 12:32:34;;;;;;;18.60;9.50;;;30.10;76.50;;;;;;1745187;78;21223;-88
2022/11/11 12:35:21;;;;;;;14.18;9.68;;;30.00;76.80;;;;;;1810405;76;21161;-90
2022/11/11 12:37:59;;;;;;;15.98;9.85;;;30.00;76.80;;;;;;1811321;78;21233;-89
2022/11/11 12:40:39;;;;;;;15.50;9.20;;;30.00;76.80;;;;;;1824035;77;21140;-88
2022/11/11 12:43:31;;;;;;;14.80;8.93;;;30.00;76.90;;;;;;1821875;77;21100;-89
2022/11/11 12:46:25;;;;;;;15.32;8.60;;;30.00;77.30;;;;;;1809473;77;21160;-89
2022/11/11 12:49:01;;;;;;;14.10;8.38;;;29.90;76.90;;;;;;1822975;77;21145;-89
2022/11/11 12:52:03;;;;;;;15.53;9.17;;;29.90;76.90;;;;;;1822579;77;21168;-88
2022/11/11 12:54:54;;;;;;;13.88;8.20;;;29.90;76.80;;;;;;1816803;77;21151;-88
2022/11/11 12:57:57;;;;;;;16.85;8.70;;;29.90;76.80;;;;;;1797158;80;21136;-90
2022/11/11 13:00:28;;;;;;;16.70;9.38;;;29.90;76.90;;;;;;1826486;78;21612;-87
2022/11/11 13:03:13;;;;;;;17.77;9.00;;;29.90;77.10;;;;;;1827946;78;21580;-90
2022/11/11 13:05:52;;;;;;;19.00;10.35;;;29.80;77.10;;;;;;1813571;78;21136;-90
2022/11/11 13:08:42;;;;;;;16.85;9.75;;;29.80;77.20;;;;;;1826003;78;21132;-91
2022/11/11 13:11:40;;;;;;;16.40;9.78;;;29.80;77.40;;;;;;1828183;78;21231;-90
2022/11/11 13:14:36;;;;;;;17.57;9.08;;;29.80;77.50;;;;;;1826107;78;21234;-89
2022/11/11 13:17:20;;;;;;;15.48;8.08;;;29.80;77.60;;;;;;1822020;78;21254;-89
2022/11/11 13:19:53;;;;;;;18.45;8.13;;;29.80;77.70;;;;;;1815189;79;21230;-84
2022/11/11 13:22:29;;;;;;;15.40;7.87;;;29.80;77.60;;;;;;1823196;78;21218;-89
2022/11/11 13:25:26;;;;;;;17.82;7.70;;;29.70;77.80;;;;;;1830345;78;21144;-89
2022/11/11 13:28:08;;;;;;;15.03;8.23;;;29.70;77.80;;;;;;1786842;78;21724;-90
2022/11/11 13:38:41;;;;;;;22.80;11.08;;;29.50;81.40;;;;;;1801587;77;21106;-84
2022/11/11 13:41:29;;;;;;;19.25;10.65;;;29.40;81.90;;;;;;1833521;78;21163;-85
2022/11/11 13:47:54;;;;;;;19.90;9.83;;;29.30;82.10;;;;;;1704407;83;21174;-85
2022/11/11 13:51:06;;;;;;;;;;;;;;;;;;;;;
2022/11/11 13:53:48;;;;;;;;;;;;;;;;;;;;;
2022/11/11 14:00:39;;;;;;;19.67;10.38;;;29.20;82.60;;;;;;1696309;84;21349;-89
2022/11/11 14:03:30;;;;;;;21.45;10.23;;;29.20;82.30;;;;;;1629545;88;21215;-85
2022/11/11 14:06:19;;;;;;;18.55;10.20;;;29.10;82.10;;;;;;1741566;82;21362;-78
2022/11/11 14:08:52;;;;;;;20.43;10.03;;;29.10;82.40;;;;;;1744765;81;21775;-80
2022/11/11 14:11:28;;;;;;;23.60;10.28;;;29.10;82.40;;;;;;1744255;82;21742;-80
2022/11/11 14:14:01;;;;;;;21.83;10.10;;;29.10;82.80;;;;;;1736023;82;21226;-80
2022/11/11 14:16:37;;;;;;;19.00;9.93;;;29.10;83.00;;;;;;1736118;82;21278;-80
2022/11/11 14:19:24;;;;;;;22.30;10.40;;;29.00;83.20;;;;;;1741617;81;21170;-80
2022/11/11 14:22:06;;;;;;;22.00;10.75;;;29.00;83.50;;;;;;1786758;77;21274;-80
2022/11/11 14:24:45;;;;;;;19.80;10.58;;;29.00;83.40;;;;;;1802865;77;21116;-81
2022/11/11 14:27:19;;;;;;;18.65;10.40;;;28.90;83.20;;;;;;1819341;77;21246;-80
2022/11/11 14:29:57;;;;;;;17.50;10.72;;;28.90;83.10;;;;;;1813950;78;21757;-80
2022/11/11 14:33:00;;;;;;;16.82;9.78;;;28.90;83.10;;;;;;1811599;78;21097;-80
2022/11/11 14:35:41;;;;;;;17.62;9.23;;;28.90;83.00;;;;;;1828970;77;21104;-80
2022/11/11 14:38:21;;;;;;;18.07;10.30;;;28.90;82.80;;;;;;1835342;77;21627;-78
2022/11/11 14:40:59;;;;;;;23.62;10.72;;;28.90;83.70;;;;;;1814580;78;21257;-79
2022/11/11 14:43:39;;;;;;;18.00;10.08;;;28.80;83.80;;;;;;1814878;78;21100;-80
2022/11/11 14:46:12;;;;;;;15.75;9.35;;;28.80;84.20;;;;;;1804051;79;21104;-79
2022/11/11 14:48:58;;;;;;;19.00;10.38;;;28.80;83.80;;;;;;1814630;76;21715;-82
2022/11/11 14:51:48;;;;;;;16.80;9.65;;;28.70;83.60;;;;;;1817319;78;21203;-81
2022/11/11 14:54:39;;;;;;;17.95;10.15;;;28.80;83.50;;;;;;1818097;78;21164;-79
2022/11/11 14:57:10;;;;;;;16.97;9.98;;;28.80;83.40;;;;;;1804961;78;21140;-82
2022/11/11 14:59:41;;;;;;;19.62;10.58;;;28.80;83.30;;;;;;1815488;77;21690;-80